Time;durP1;ratioP1;P1;durP2;ratioP2;P2;SDS_P1;SDS_P2;PMS_P1;PMS_P2;Temp;Humidity;BMP_temperature;BMP_pressure;BME280_temperature;BME280_humidity;BME280_pressure;Samples;Min_cycle;Max_cycle;Signal;HPM_P1;HPM_P2
2022/09/28 00:01:17;;;;;;;16.30;12.80;;;;;;;12.82;80.00;98579.14;103153;1281;96722;-64
2022/09/28 00:03:48;;;;;;;14.50;11.50;;;;;;;12.76;80.22;98577.73;103097;1281;96435;-60
2022/09/28 00:06:23;;;;;;;15.60;11.80;;;;;;;12.71;80.41;98581.82;103290;1281;109624;-61
2022/09/28 00:08:51;;;;;;;15.20;12.00;;;;;;;12.71;80.59;98583.42;103265;1281;99591;-62
2022/09/28 00:11:21;;;;;;;13.30;10.60;;;;;;;12.66;80.73;98581.41;103137;1281;108844;-62
2022/09/28 00:13:51;;;;;;;12.80;9.50;;;;;;;12.61;80.80;98584.44;103179;1281;95446;-62
2022/09/28 00:16:22;;;;;;;11.70;8.90;;;;;;;12.55;80.71;98585.50;103131;1281;95462;-62
2022/09/28 00:18:52;;;;;;;9.80;6.80;;;;;;;12.49;80.85;98578.05;103115;1282;109763;-62
2022/09/28 00:21:23;;;;;;;9.30;6.80;;;;;;;12.45;80.77;98580.08;103100;1281;99782;-63
2022/09/28 00:24:16;;;;;;;9.50;6.00;;;;;;;12.44;80.82;98581.05;103160;1281;107815;-63
2022/09/28 00:26:50;;;;;;;9.10;5.80;;;;;;;12.40;80.92;98580.55;103099;1281;95662;-63
2022/09/28 00:29:22;;;;;;;9.10;6.10;;;;;;;12.35;80.69;98583.04;103015;1281;96123;-61
2022/09/28 00:31:51;;;;;;;9.50;5.60;;;;;;;12.33;80.72;98584.76;103106;1281;109679;-61
2022/09/28 00:34:19;;;;;;;8.80;5.80;;;;;;;12.27;80.61;98583.54;103168;1281;99551;-62
2022/09/28 00:36:48;;;;;;;9.70;5.90;;;;;;;12.21;80.88;98582.61;103087;1281;108859;-61
2022/09/28 00:39:16;;;;;;;9.80;5.70;;;;;;;12.20;80.87;98584.81;102977;1281;96257;-61
2022/09/28 00:41:46;;;;;;;8.10;5.40;;;;;;;12.16;80.69;98583.14;103319;1281;95413;-62
2022/09/28 00:44:41;;;;;;;8.50;5.10;;;;;;;12.13;80.77;98583.14;103099;1281;109749;-61
2022/09/28 00:47:16;;;;;;;9.20;5.20;;;;;;;12.07;80.78;98584.76;103071;1281;98567;-62
2022/09/28 00:50:11;;;;;;;8.00;5.20;;;;;;;12.04;80.89;98588.50;103199;1281;108850;-62
2022/09/28 00:52:41;;;;;;;7.50;4.70;;;;;;;12.02;80.98;98584.52;102959;1281;95323;-61
2022/09/28 00:55:15;;;;;;;7.50;4.60;;;;;;;12.00;80.98;98582.13;103066;1281;95330;-63
2022/09/28 00:57:49;;;;;;;7.80;4.40;;;;;;;11.97;81.15;98583.77;103396;1281;107083;-61
2022/09/28 01:00:18;;;;;;;7.80;4.80;;;;;;;11.99;81.26;98583.64;103205;1281;99628;-62
2022/09/28 01:02:47;;;;;;;6.90;4.40;;;;;;;12.01;81.20;98584.92;103201;1281;108903;-61
2022/09/28 01:05:16;;;;;;;7.60;4.20;;;;;;;11.99;80.95;98584.34;103190;1280;95299;-61
2022/09/28 01:07:45;;;;;;;6.60;3.60;;;;;;;11.97;80.88;98580.92;103065;1282;95354;-61
2022/09/28 01:10:14;;;;;;;6.70;3.40;;;;;;;11.93;80.77;98579.89;102962;1282;109845;-62
2022/09/28 01:12:42;;;;;;;6.90;3.70;;;;;;;11.91;80.95;98577.91;103318;1281;99112;-60
2022/09/28 01:15:10;;;;;;;7.10;3.60;;;;;;;11.89;80.98;98577.42;103173;1279;108838;-63
2022/09/28 01:18:10;;;;;;;6.60;3.80;;;;;;;11.88;80.94;98570.38;103044;1281;96143;-61
2022/09/28 01:21:01;;;;;;;6.30;3.70;;;;;;;11.87;81.10;98566.88;102744;1282;95944;-59
2022/09/28 01:23:47;;;;;;;6.80;3.80;;;;;;;11.87;81.17;98563.51;103140;1280;109982;-61
2022/09/28 01:26:30;;;;;;;7.30;3.70;;;;;;;11.91;81.18;98561.73;102927;1282;98275;-61
2022/09/28 01:29:16;;;;;;;6.50;3.10;;;;;;;11.89;81.09;98561.28;103066;1281;108891;-60
2022/09/28 01:31:51;;;;;;;6.30;3.50;;;;;;;11.92;81.28;98556.30;103012;1281;95733;-60
2022/09/28 01:34:55;;;;;;;5.70;2.60;;;;;;;12.00;81.07;98551.87;103295;1281;95406;-62
2022/09/28 01:37:31;;;;;;;5.90;2.70;;;;;;;12.09;80.65;98550.27;102967;1281;109785;-61
2022/09/28 01:40:02;;;;;;;5.70;3.10;;;;;;;12.15;80.44;98547.27;103205;1280;99408;-61
2022/09/28 01:42:34;;;;;;;5.80;2.90;;;;;;;12.19;80.43;98545.55;103057;1281;108760;-61
2022/09/28 01:45:11;;;;;;;6.10;3.10;;;;;;;12.29;80.05;98540.55;103139;1281;96004;-60
2022/09/28 01:47:40;;;;;;;5.60;2.90;;;;;;;12.37;79.88;98539.63;103095;1281;95884;-61
2022/09/28 01:50:17;;;;;;;6.50;3.00;;;;;;;12.44;79.53;98547.39;103035;1281;109751;-62
2022/09/28 01:52:57;;;;;;;6.10;3.30;;;;;;;12.45;79.46;98551.08;103022;1281;99116;-63
2022/09/28 01:55:37;;;;;;;6.20;3.00;;;;;;;12.50;79.21;98552.73;103042;1281;108751;-63
2022/09/28 01:58:14;;;;;;;5.30;2.60;;;;;;;12.55;78.89;98553.64;103134;1281;96144;-61
2022/09/28 02:00:48;;;;;;;5.10;2.50;;;;;;;12.59;78.73;98552.85;103161;1281;96152;-62
2022/09/28 02:03:31;;;;;;;6.50;2.50;;;;;;;12.67;78.65;98555.84;103245;1281;109835;-61
2022/09/28 02:06:07;;;;;;;4.90;2.40;;;;;;;12.76;78.27;98559.78;103150;1280;100066;-62
2022/09/28 02:09:02;;;;;;;5.60;2.60;;;;;;;12.81;77.98;98560.70;103025;1282;109264;-61
2022/09/28 02:11:43;;;;;;;5.50;2.30;;;;;;;12.85;77.57;98559.39;102788;1282;95713;-61
2022/09/28 02:14:16;;;;;;;5.20;2.30;;;;;;;12.89;77.37;98562.84;103004;1282;95675;-62
2022/09/28 02:16:48;;;;;;;6.90;2.30;;;;;;;12.93;76.96;98561.73;103089;1281;109723;-60
2022/09/28 02:19:24;;;;;;;5.10;2.30;;;;;;;12.92;76.70;98556.77;103086;1281;99417;-61
2022/09/28 02:22:12;;;;;;;5.10;2.20;;;;;;;12.92;76.88;98559.27;103114;1281;108827;-62
2022/09/28 02:25:06;;;;;;;5.70;2.10;;;;;;;12.93;76.49;98560.08;102794;1282;95455;-62
2022/09/28 02:27:44;;;;;;;6.10;2.50;;;;;;;12.96;75.91;98556.30;103038;1281;96145;-63
2022/09/28 02:30:13;;;;;;;5.10;2.50;;;;;;;12.94;76.23;98557.73;103229;1280;109739;-63
2022/09/28 02:32:46;;;;;;;5.40;2.50;;;;;;;12.96;76.20;98555.23;103128;1282;99672;-64
2022/09/28 02:35:17;;;;;;;5.20;2.40;;;;;;;12.96;76.54;98551.52;103296;1281;109169;-62
2022/09/28 02:37:45;;;;;;;5.60;2.90;;;;;;;12.95;76.37;98552.29;102937;1282;96207;-62
2022/09/28 02:40:21;;;;;;;6.10;3.00;;;;;;;12.98;76.26;98550.88;103063;1281;95309;-62
2022/09/28 02:43:10;;;;;;;6.40;3.20;;;;;;;12.98;76.29;98553.17;103235;1281;109716;-61
2022/09/28 02:45:55;;;;;;;6.10;3.10;;;;;;;12.96;76.49;98550.66;103216;1281;99404;-62
2022/09/28 02:48:46;;;;;;;6.00;3.10;;;;;;;12.94;76.32;98549.16;103057;1281;108806;-63
2022/09/28 02:51:36;;;;;;;6.70;3.50;;;;;;;12.91;76.71;98555.58;103154;1281;95629;-62
2022/09/28 02:54:19;;;;;;;6.40;3.30;;;;;;;12.91;76.48;98552.21;102944;1280;95736;-63
2022/09/28 02:57:31;;;;;;;6.70;3.70;;;;;;;12.91;76.44;98549.37;102965;1282;109810;-62
2022/09/28 03:00:10;;;;;;;6.40;3.90;;;;;;;12.93;76.85;98552.80;102863;1282;99924;-60
2022/09/28 03:02:51;;;;;;;7.00;3.80;;;;;;;12.98;76.67;98543.91;103141;1280;109556;-61
2022/09/28 03:05:37;;;;;;;6.70;3.80;;;;;;;12.96;76.58;98545.50;103128;1281;95471;-60
2022/09/28 03:08:14;;;;;;;6.10;3.50;;;;;;;12.92;76.69;98546.10;103215;1281;95723;-61
2022/09/28 03:10:44;;;;;;;6.80;3.80;;;;;;;12.86;76.90;98547.70;102965;1282;110011;-60
2022/09/28 03:13:13;;;;;;;6.80;3.90;;;;;;;12.86;77.20;98551.09;103093;1281;99442;-61
2022/09/28 03:15:43;;;;;;;7.10;3.90;;;;;;;12.82;77.19;98551.87;103161;1281;108852;-60
2022/09/28 03:18:16;;;;;;;6.10;3.80;;;;;;;12.88;77.45;98551.50;103130;1283;96164;-61
2022/09/28 03:20:45;;;;;;;6.70;3.60;;;;;;;12.91;77.17;98550.45;103285;1281;95741;-61
2022/09/28 03:23:13;;;;;;;7.40;4.20;;;;;;;12.94;77.41;98551.45;103140;1281;109904;-62
2022/09/28 03:25:56;;;;;;;7.80;4.80;;;;;;;12.99;77.06;98548.13;102869;1282;99330;-60
2022/09/28 03:28:25;;;;;;;8.10;5.00;;;;;;;12.97;77.32;98550.05;103042;1280;109433;-60
2022/09/28 03:30:53;;;;;;;8.40;5.30;;;;;;;12.93;77.06;98552.26;103462;1281;95717;-61
2022/09/28 03:33:21;;;;;;;7.90;5.20;;;;;;;12.90;77.19;98554.94;102939;1281;95826;-60
2022/09/28 03:35:51;;;;;;;8.50;5.50;;;;;;;12.90;77.13;98554.25;103328;1281;109812;-60
2022/09/28 03:38:21;;;;;;;9.60;6.40;;;;;;;12.89;77.09;98555.02;103148;1281;99933;-60
2022/09/28 03:40:57;;;;;;;9.30;6.60;;;;;;;12.89;77.03;98555.19;102937;1282;108813;-62
2022/09/28 03:43:27;;;;;;;9.50;6.90;;;;;;;12.92;76.90;98555.69;103113;1281;95795;-62
2022/09/28 03:45:57;;;;;;;9.30;7.00;;;;;;;12.87;76.91;98555.48;103295;1281;96263;-63
2022/09/28 03:48:35;;;;;;;9.50;6.60;;;;;;;12.89;77.15;98559.46;103187;1280;110359;-60
2022/09/28 03:51:08;;;;;;;9.60;7.60;;;;;;;12.91;77.09;98556.48;103129;1281;98600;-61
2022/09/28 03:53:36;;;;;;;10.40;7.80;;;;;;;12.85;76.67;98557.73;103077;1281;108985;-61
2022/09/28 03:56:14;;;;;;;10.90;8.00;;;;;;;12.76;76.64;98556.23;102975;1281;95281;-61
2022/09/28 03:58:42;;;;;;;9.90;7.50;;;;;;;12.73;76.77;98558.39;103164;1281;95774;-60
2022/09/28 04:01:12;;;;;;;11.60;8.00;;;;;;;12.68;76.84;98563.86;103045;1281;108734;-62
2022/09/28 04:03:44;;;;;;;9.70;7.30;;;;;;;12.67;77.12;98569.59;103217;1281;97205;-58
2022/09/28 04:06:13;;;;;;;10.60;8.30;;;;;;;12.62;76.82;98570.49;103020;1281;109546;-60
2022/09/28 04:08:42;;;;;;;10.90;8.30;;;;;;;12.48;76.93;98567.58;103166;1281;95788;-61
2022/09/28 04:11:10;;;;;;;11.00;7.60;;;;;;;12.39;76.96;98563.86;103230;1281;95290;-61
2022/09/28 04:13:38;;;;;;;10.00;7.60;;;;;;;12.36;77.10;98566.75;103040;1282;109813;-61
2022/09/28 04:16:10;;;;;;;10.10;7.90;;;;;;;12.34;77.36;98569.35;103060;1281;99794;-61
2022/09/28 04:18:41;;;;;;;11.10;8.30;;;;;;;12.32;77.27;98570.03;103161;1281;109164;-60
2022/09/28 04:21:12;;;;;;;11.30;8.00;;;;;;;12.29;77.38;98572.00;103138;1281;95775;-60
2022/09/28 04:23:44;;;;;;;10.90;8.60;;;;;;;12.31;77.45;98571.20;103029;1281;96059;-61
2022/09/28 04:26:18;;;;;;;11.10;8.10;;;;;;;12.32;77.31;98565.77;103098;1281;110144;-60
2022/09/28 04:31:52;;;;;;;11.50;8.60;;;;;;;12.26;76.95;98568.83;102896;1282;107974;-61
2022/09/28 04:34:26;;;;;;;11.30;8.00;;;;;;;12.21;76.97;98571.77;103174;1281;95350;-63
2022/09/28 04:36:58;;;;;;;11.00;8.80;;;;;;;12.21;77.10;98566.82;103065;1281;95237;-61
2022/09/28 04:39:26;;;;;;;11.10;8.70;;;;;;;12.16;77.03;98565.89;103110;1280;109544;-60
2022/09/28 04:41:55;;;;;;;10.30;8.30;;;;;;;12.11;77.07;98563.17;103251;1282;99741;-60
2022/09/28 04:44:23;;;;;;;10.60;7.90;;;;;;;12.04;76.98;98561.98;103009;1281;107823;-61
2022/09/28 04:46:57;;;;;;;11.10;8.10;;;;;;;12.05;77.26;98563.71;103156;1281;95756;-61
2022/09/28 04:49:34;;;;;;;12.50;9.30;;;;;;;12.04;77.21;98565.53;103130;1281;95982;-61
2022/09/28 04:52:16;;;;;;;11.80;8.40;;;;;;;12.07;77.34;98568.40;103221;1281;109999;-60
2022/09/28 04:54:48;;;;;;;10.60;8.30;;;;;;;12.08;77.24;98568.68;102970;1282;100320;-60
2022/09/28 04:57:16;;;;;;;10.80;8.50;;;;;;;12.12;77.33;98568.27;103195;1281;108196;-60
2022/09/28 04:59:44;;;;;;;11.80;8.20;;;;;;;12.10;76.91;98568.52;102910;1282;95229;-62
2022/09/28 05:02:13;;;;;;;11.00;8.90;;;;;;;12.07;77.09;98568.38;103130;1281;95609;-62
2022/09/28 05:05:14;;;;;;;11.90;8.10;;;;;;;11.94;77.09;98571.09;102708;1281;109620;-61
2022/09/28 05:08:05;;;;;;;10.60;8.10;;;;;;;11.92;76.96;98571.63;103083;1281;99776;-62
2022/09/28 05:10:33;;;;;;;10.30;8.40;;;;;;;11.87;77.04;98573.63;103021;1281;109095;-62
2022/09/28 05:13:01;;;;;;;12.10;9.10;;;;;;;11.83;77.14;98572.11;103107;1281;95818;-61
2022/09/28 05:15:29;;;;;;;13.30;8.30;;;;;;;11.81;77.19;98570.13;102970;1281;95321;-62
2022/09/28 05:17:58;;;;;;;12.60;9.40;;;;;;;11.74;77.07;98570.71;103115;1281;109895;-61
2022/09/28 05:20:40;;;;;;;12.60;8.90;;;;;;;11.66;77.08;98570.81;103172;1281;98514;-61
2022/09/28 05:23:12;;;;;;;10.70;7.90;;;;;;;11.64;77.08;98571.83;103066;1281;107885;-62
2022/09/28 05:25:41;;;;;;;10.60;7.90;;;;;;;11.60;76.74;98580.84;103193;1281;95415;-61
2022/09/28 05:28:27;;;;;;;9.00;7.30;;;;;;;11.56;76.98;98579.63;103180;1281;95197;-61
2022/09/28 05:31:27;;;;;;;9.60;7.70;;;;;;;11.50;76.94;98578.54;103168;1280;109878;-61
2022/09/28 05:34:18;;;;;;;10.60;8.60;;;;;;;11.49;77.33;98580.36;102839;1282;98737;-61
2022/09/28 05:36:46;;;;;;;11.70;9.00;;;;;;;11.49;77.24;98579.27;102926;1280;108964;-62
2022/09/28 05:39:14;;;;;;;10.90;8.90;;;;;;;11.49;77.38;98582.67;102942;1281;96034;-61
2022/09/28 05:41:41;;;;;;;12.40;9.60;;;;;;;11.43;77.47;98578.61;103049;1281;95351;-61
2022/09/28 05:44:09;;;;;;;12.70;9.00;;;;;;;11.43;77.69;98576.84;103164;1281;109898;-62
2022/09/28 05:46:37;;;;;;;13.00;10.00;;;;;;;11.43;77.60;98577.17;103005;1281;99356;-61
2022/09/28 05:49:05;;;;;;;14.00;10.40;;;;;;;11.45;77.67;98576.16;103027;1281;108898;-62
2022/09/28 05:51:33;;;;;;;13.30;10.50;;;;;;;11.43;77.68;98584.25;102937;1282;95678;-61
2022/09/28 05:54:01;;;;;;;15.00;10.40;;;;;;;11.40;77.72;98590.16;103165;1281;95261;-61
2022/09/28 05:56:34;;;;;;;12.70;9.60;;;;;;;11.35;77.59;98595.58;103361;1281;108706;-61
2022/09/28 05:59:06;;;;;;;11.30;9.20;;;;;;;11.33;77.44;98602.27;103026;1282;99434;-62
2022/09/28 06:01:35;;;;;;;10.60;8.60;;;;;;;11.30;77.13;98602.46;103092;1281;109159;-62
2022/09/28 06:04:07;;;;;;;11.60;8.90;;;;;;;11.29;77.29;98603.40;103185;1281;95330;-63
2022/09/28 06:06:37;;;;;;;10.60;8.50;;;;;;;11.36;77.39;98604.58;103353;1280;96283;-62
2022/09/28 06:09:05;;;;;;;11.80;9.00;;;;;;;11.41;77.50;98606.27;103171;1281;110322;-61
2022/09/28 06:11:33;;;;;;;11.30;9.10;;;;;;;11.45;77.42;98606.56;102973;1281;99484;-62
2022/09/28 06:14:20;;;;;;;11.80;8.80;;;;;;;11.41;77.09;98605.73;102963;1281;108394;-62
2022/09/28 06:16:48;;;;;;;11.00;8.30;;;;;;;11.41;76.98;98609.65;103103;1280;95516;-63
2022/09/28 06:19:17;;;;;;;11.50;8.20;;;;;;;11.45;76.98;98608.52;103325;1281;95584;-61
2022/09/28 06:22:04;;;;;;;10.20;7.90;;;;;;;11.51;76.98;98610.10;103133;1281;109916;-62
2022/09/28 06:24:35;;;;;;;11.10;8.70;;;;;;;11.57;76.85;98615.13;103199;1282;99485;-63
2022/09/28 06:27:03;;;;;;;13.10;8.30;;;;;;;11.61;77.12;98614.33;103090;1281;108802;-62
2022/09/28 06:29:31;;;;;;;32.00;22.40;;;;;;;11.65;76.90;98618.35;103213;1280;95715;-63
2022/09/28 06:32:00;;;;;;;13.80;10.00;;;;;;;11.69;77.20;98619.70;103037;1281;95792;-61
2022/09/28 06:34:28;;;;;;;10.80;7.50;;;;;;;11.77;77.21;98616.39;103020;1281;109782;-62
2022/09/28 06:36:56;;;;;;;11.00;8.40;;;;;;;11.85;77.01;98615.23;103044;1281;99462;-62
2022/09/28 06:39:25;;;;;;;11.60;8.30;;;;;;;11.87;76.53;98610.82;102934;1282;108644;-63
2022/09/28 06:41:52;;;;;;;12.40;8.30;;;;;;;11.90;76.73;98612.60;103052;1282;95475;-62
2022/09/28 06:44:20;;;;;;;10.50;8.00;;;;;;;11.89;76.03;98611.95;103290;1281;95404;-62
2022/09/28 06:47:18;;;;;;;10.50;7.60;;;;;;;11.92;76.09;98613.95;102357;1281;109336;-63
2022/09/28 06:50:12;;;;;;;12.00;8.40;;;;;;;12.02;75.92;98612.25;103072;1282;99459;-63
2022/09/28 06:52:52;;;;;;;10.80;7.90;;;;;;;12.08;75.26;98617.09;103186;1281;108868;-63
2022/09/28 06:55:45;;;;;;;9.10;7.20;;;;;;;12.06;74.81;98619.14;103145;1280;95438;-65
2022/09/28 06:58:16;;;;;;;8.70;6.70;;;;;;;12.07;74.81;98619.61;103205;1281;95445;-61
2022/09/28 07:00:45;;;;;;;10.00;7.40;;;;;;;12.08;74.63;98623.13;102650;1280;108520;-64
2022/09/28 07:03:15;;;;;;;10.00;7.90;;;;;;;12.14;74.57;98630.39;103655;1281;100063;-64
2022/09/28 07:05:54;;;;;;;14.00;9.30;;;;;;;12.22;75.08;98629.55;102822;1282;108826;-62
2022/09/28 07:09:05;;;;;;;11.20;8.40;;;;;;;12.25;74.23;98632.40;102740;1281;95782;-61
2022/09/28 07:12:12;;;;;;;10.50;8.10;;;;;;;12.21;74.12;98635.13;102985;1281;96177;-62
2022/09/28 07:15:01;;;;;;;12.40;8.70;;;;;;;12.24;73.50;98634.80;103027;1281;110048;-61
2022/09/28 07:17:30;;;;;;;11.30;7.80;;;;;;;12.23;73.70;98637.15;103101;1280;99434;-62
2022/09/28 07:20:02;;;;;;;9.80;7.10;;;;;;;12.21;73.50;98639.41;102872;1282;108808;-61
2022/09/28 07:22:46;;;;;;;10.40;7.20;;;;;;;12.22;73.53;98639.49;102808;1281;96416;-62
2022/09/28 07:25:19;;;;;;;9.90;7.30;;;;;;;12.29;73.53;98638.54;103493;1281;95402;-62
2022/09/28 07:28:00;;;;;;;9.60;6.90;;;;;;;12.32;72.96;98636.42;102891;1282;109011;-65
2022/09/28 07:30:47;;;;;;;12.00;6.70;;;;;;;12.27;72.68;98638.65;103025;1281;100015;-61
2022/09/28 07:33:37;;;;;;;9.20;6.80;;;;;;;12.33;73.23;98642.05;102874;1282;108850;-62
2022/09/28 07:36:16;;;;;;;11.00;8.00;;;;;;;12.35;72.89;98645.67;102899;1280;95357;-63
2022/09/28 07:38:45;;;;;;;11.20;8.00;;;;;;;12.28;72.90;98642.70;103101;1281;95284;-65
2022/09/28 07:41:15;;;;;;;11.20;7.20;;;;;;;12.23;73.07;98643.36;102542;1282;110026;-64
2022/09/28 07:43:47;;;;;;;11.90;7.40;;;;;;;12.21;72.96;98640.31;103017;1280;99466;-62
2022/09/28 07:46:16;;;;;;;10.60;7.10;;;;;;;12.25;73.11;98636.65;102758;1281;108973;-62
2022/09/28 07:48:54;;;;;;;9.60;6.50;;;;;;;12.48;73.73;98638.85;102950;1281;95430;-64
2022/09/28 07:51:43;;;;;;;9.90;7.00;;;;;;;12.67;73.29;98644.00;102801;1281;95423;-62
2022/09/28 07:54:22;;;;;;;11.80;7.40;;;;;;;12.81;72.99;98647.59;102913;1281;110512;-65
2022/09/28 07:56:59;;;;;;;9.70;7.50;;;;;;;12.71;71.90;98654.27;102895;1281;99546;-63
2022/09/28 07:59:35;;;;;;;9.80;7.20;;;;;;;12.72;73.00;98654.23;102781;1281;108893;-64
2022/09/28 08:02:23;;;;;;;11.40;7.60;;;;;;;12.75;72.74;98652.97;102942;1281;95425;-65
2022/09/28 08:04:51;;;;;;;11.60;7.30;;;;;;;12.78;72.52;98656.48;103188;1279;97038;-64
2022/09/28 08:07:21;;;;;;;9.80;6.90;;;;;;;12.83;71.59;98659.77;103026;1281;110605;-64
2022/09/28 08:09:57;;;;;;;8.80;7.30;;;;;;;12.81;71.56;98662.05;102896;1281;99771;-63
2022/09/28 08:12:28;;;;;;;12.50;8.00;;;;;;;12.85;71.37;98666.04;102928;1280;108382;-63
2022/09/28 08:15:11;;;;;;;9.70;7.30;;;;;;;12.92;71.35;98666.70;102871;1279;95724;-62
2022/09/28 08:17:48;;;;;;;9.70;7.50;;;;;;;12.97;71.07;98668.48;102975;1281;95777;-63
2022/09/28 08:23:07;;;;;;;11.00;8.20;;;;;;;13.13;71.40;98671.19;102905;1281;98316;-63
2022/09/28 08:25:37;;;;;;;10.60;7.90;;;;;;;13.21;70.54;98672.47;103077;1281;108738;-63
2022/09/28 08:28:06;;;;;;;9.50;7.40;;;;;;;13.34;70.57;98668.81;102972;1281;96149;-62
2022/09/28 08:30:40;;;;;;;9.80;7.00;;;;;;;13.50;70.94;98669.15;102917;1281;95216;-63
2022/09/28 08:33:20;;;;;;;10.20;7.60;;;;;;;13.52;69.99;98668.15;102875;1281;109843;-63
2022/09/28 08:35:58;;;;;;;11.40;7.10;;;;;;;13.62;69.98;98668.59;102686;1282;99471;-61
2022/09/28 08:38:35;;;;;;;9.60;7.60;;;;;;;13.75;68.80;98666.31;102789;1282;109275;-61
2022/09/28 08:41:33;;;;;;;9.40;7.10;;;;;;;13.86;69.09;98663.95;102771;1281;96763;-64
2022/09/28 08:44:24;;;;;;;9.00;6.50;;;;;;;13.99;68.70;98671.81;102891;1281;96604;-62
2022/09/28 08:50:45;;;;;;;9.70;6.70;;;;;;;13.89;67.00;98671.44;103239;1281;99366;-62
2022/09/28 08:53:40;;;;;;;9.40;6.00;;;;;;;13.85;67.79;98674.00;102614;1282;109550;-63
2022/09/28 08:56:48;;;;;;;10.10;6.30;;;;;;;13.74;67.12;98668.34;102823;1281;95682;-63
2022/09/28 08:59:21;;;;;;;9.70;6.30;;;;;;;13.81;67.19;98668.19;103145;1281;97403;-62
2022/09/28 09:01:57;;;;;;;8.10;5.80;;;;;;;14.04;66.32;98667.86;102850;1281;108973;-63
2022/09/28 09:04:26;;;;;;;8.60;6.30;;;;;;;14.29;66.28;98666.20;102811;1281;99452;-63
2022/09/28 09:07:19;;;;;;;9.00;6.30;;;;;;;14.48;65.74;98660.40;102884;1281;108899;-63
2022/09/28 09:10:47;;;;;;;8.90;6.30;;;;;;;14.68;65.87;98661.52;102847;1281;95424;-65
2022/09/28 09:13:32;;;;;;;8.70;6.10;;;;;;;15.02;64.80;98658.41;102413;1281;95542;-63
2022/09/28 09:16:18;;;;;;;8.10;5.00;;;;;;;15.78;64.31;98654.95;102797;1281;109781;-63
2022/09/28 09:19:27;;;;;;;24.60;18.20;;;;;;;16.32;61.51;98655.33;102820;1281;99901;-64
2022/09/28 09:22:38;;;;;;;7.30;5.20;;;;;;;17.49;58.42;98653.29;102743;1281;108203;-63
2022/09/28 09:25:16;;;;;;;7.50;4.40;;;;;;;18.70;54.64;98650.03;102773;1282;95702;-63
2022/09/28 09:27:56;;;;;;;6.00;3.80;;;;;;;20.18;52.07;98649.27;102933;1281;96176;-63
2022/09/28 09:30:28;;;;;;;5.90;3.60;;;;;;;21.01;49.56;98650.03;102865;1282;108955;-65
2022/09/28 09:33:04;;;;;;;6.00;3.50;;;;;;;22.98;46.41;98646.00;102948;1282;99291;-64
2022/09/28 09:36:26;;;;;;;6.20;3.40;;;;;;;24.16;43.35;98647.12;102761;1281;108925;-63
2022/09/28 09:39:35;;;;;;;6.40;3.00;;;;;;;25.07;38.90;98646.55;102927;1281;96350;-63
2022/09/28 09:42:48;;;;;;;6.00;3.20;;;;;;;24.25;40.23;98656.05;102664;1282;95158;-66
2022/09/28 09:45:52;;;;;;;6.20;3.00;;;;;;;25.62;39.03;98657.44;102332;1282;109764;-64
2022/09/28 09:48:58;;;;;;;5.90;2.90;;;;;;;25.75;36.18;98660.84;102669;1282;98516;-64
2022/09/28 09:51:35;;;;;;;5.70;2.70;;;;;;;27.28;35.56;98660.90;102646;1282;108874;-66
2022/09/28 09:54:28;;;;;;;5.30;2.50;;;;;;;28.08;33.99;98659.30;106743;1282;93679;-64
2022/09/28 09:57:04;;;;;;;5.30;2.70;;;;;;;27.45;33.89;98664.33;103062;1282;96001;-65
2022/09/28 10:00:01;;;;;;;5.60;2.80;;;;;;;25.70;35.33;98676.34;102892;1281;109531;-64
2022/09/28 10:02:48;;;;;;;5.70;2.30;;;;;;;25.83;35.89;98676.22;102879;1281;98809;-64
2022/09/28 10:05:29;;;;;;;5.90;2.40;;;;;;;26.73;33.65;98673.42;102653;1282;107420;-65
2022/09/28 10:08:00;;;;;;;7.40;3.50;;;;;;;25.93;33.84;98673.29;102669;1280;96133;-65
2022/09/28 10:10:36;;;;;;;6.30;2.80;;;;;;;24.69;36.71;98678.02;102853;1282;95476;-65
2022/09/28 10:13:09;;;;;;;5.00;2.50;;;;;;;24.03;36.38;98681.16;102912;1281;109146;-63
2022/09/28 10:15:40;;;;;;;5.30;2.40;;;;;;;22.44;37.72;98687.83;102996;1281;99509;-66
2022/09/28 10:18:20;;;;;;;6.80;2.50;;;;;;;21.27;41.66;98689.73;102731;1281;107579;-65
2022/09/28 10:21:12;;;;;;;6.90;2.50;;;;;;;20.51;42.60;98694.71;102878;1281;95680;-63
2022/09/28 10:24:02;;;;;;;6.60;2.30;;;;;;;19.96;42.74;98690.59;102566;1281;95551;-64
2022/09/28 10:26:38;;;;;;;5.00;2.00;;;;;;;20.98;41.32;98685.23;103032;1281;109414;-64
2022/09/28 10:29:23;;;;;;;5.10;2.30;;;;;;;22.37;38.59;98687.47;102877;1282;100015;-64
2022/09/28 10:31:53;;;;;;;5.10;2.40;;;;;;;21.46;39.18;98688.42;103060;1281;108929;-65
2022/09/28 10:34:39;;;;;;;5.50;2.40;;;;;;;20.50;43.59;98683.95;103187;1281;95908;-64
2022/09/28 10:37:12;;;;;;;7.20;3.30;;;;;;;19.77;44.25;98690.92;102958;1282;96249;-65
2022/09/28 10:39:57;;;;;;;6.40;2.70;;;;;;;19.22;44.65;98693.55;102815;1282;110154;-67
2022/09/28 10:42:31;;;;;;;5.50;2.30;;;;;;;18.70;45.59;98692.61;103085;1281;99390;-63
2022/09/28 10:45:06;;;;;;;5.00;2.40;;;;;;;18.26;46.58;98691.98;103060;1281;108722;-64
2022/09/28 10:47:43;;;;;;;6.00;2.40;;;;;;;17.92;48.96;98693.93;102735;1283;95380;-64
2022/09/28 10:50:26;;;;;;;7.10;3.20;;;;;;;17.57;49.13;98697.16;102921;1282;95812;-66
2022/09/28 10:53:19;;;;;;;6.90;3.40;;;;;;;17.20;50.28;98696.56;103093;1281;109397;-65
2022/09/28 10:56:22;;;;;;;6.60;3.50;;;;;;;16.82;52.11;98697.98;102885;1281;98882;-64
2022/09/28 10:58:57;;;;;;;7.10;3.00;;;;;;;16.54;52.11;98695.66;102803;1282;109464;-66
2022/09/28 11:01:38;;;;;;;5.90;2.70;;;;;;;16.34;52.37;98695.65;103043;1280;95241;-66
2022/09/28 11:04:09;;;;;;;5.40;2.70;;;;;;;16.25;53.36;98687.74;103147;1281;95928;-64
2022/09/28 11:06:40;;;;;;;6.90;2.60;;;;;;;16.23;53.97;98683.42;102947;1282;109956;-63
2022/09/28 11:09:29;;;;;;;6.10;2.30;;;;;;;16.25;54.00;98682.55;102774;1282;99889;-68
2022/09/28 11:12:05;;;;;;;4.60;2.00;;;;;;;16.31;54.14;98680.64;103118;1281;107222;-65
2022/09/28 11:14:37;;;;;;;5.90;2.40;;;;;;;16.41;53.89;98675.37;103026;1281;95986;-65
2022/09/28 11:17:23;;;;;;;6.20;2.60;;;;;;;16.48;53.15;98677.83;102883;1282;95397;-64
2022/09/28 11:19:52;;;;;;;10.10;2.40;;;;;;;16.35;53.01;98680.17;103030;1281;109759;-65
2022/09/28 11:22:31;;;;;;;5.40;2.30;;;;;;;16.15;52.79;98685.45;103215;1280;99458;-65
2022/09/28 11:25:16;;;;;;;5.40;2.10;;;;;;;15.97;53.03;98685.70;102853;1282;106551;-65
2022/09/28 11:27:49;;;;;;;6.20;2.00;;;;;;;15.85;52.75;98683.27;103036;1282;96140;-64
2022/09/28 11:30:26;;;;;;;5.90;2.20;;;;;;;15.70;52.56;98685.74;102651;1282;95421;-65
2022/09/28 11:33:18;;;;;;;6.00;2.10;;;;;;;15.61;54.75;98682.49;103042;1281;109326;-65
2022/09/28 11:36:20;;;;;;;5.50;1.90;;;;;;;15.52;53.95;98683.87;103181;1281;99925;-67
2022/09/28 11:39:08;;;;;;;4.50;1.50;;;;;;;15.42;55.50;98680.11;102808;1284;108910;-65
2022/09/28 11:41:58;;;;;;;7.40;1.70;;;;;;;15.30;56.27;98683.70;103255;1281;95431;-66
2022/09/28 11:44:47;;;;;;;4.50;1.60;;;;;;;15.30;56.15;98686.23;103048;1282;95393;-64
2022/09/28 11:47:40;;;;;;;4.60;2.30;;;;;;;15.40;56.54;98688.73;103134;1280;110162;-66
2022/09/28 11:50:20;;;;;;;5.20;1.90;;;;;;;15.52;54.66;98686.34;102769;1282;314302;-65
2022/09/28 11:53:02;;;;;;;4.20;1.50;;;;;;;15.51;53.56;98686.59;103266;1281;107780;-64
2022/09/28 11:55:37;;;;;;;4.70;1.70;;;;;;;15.47;53.47;98694.95;103085;1281;95435;-65
2022/09/28 11:58:14;;;;;;;5.30;1.60;;;;;;;15.50;52.99;98692.77;103119;1280;95344;-65
2022/09/28 12:00:49;;;;;;;4.50;1.50;;;;;;;15.55;53.42;98693.66;103048;1281;109792;-65
2022/09/28 12:03:24;;;;;;;4.40;1.60;;;;;;;15.55;53.14;98695.83;103257;1281;99356;-66
2022/09/28 12:06:06;;;;;;;4.60;1.50;;;;;;;15.42;52.94;98697.70;104580;1280;108996;-65
2022/09/28 12:08:42;;;;;;;4.60;1.80;;;;;;;15.39;53.56;98694.67;103078;1281;95310;-65
2022/09/28 12:11:51;;;;;;;4.70;1.60;;;;;;;15.39;54.18;98695.02;102771;1282;95702;-65
2022/09/28 12:14:29;;;;;;;4.10;1.40;;;;;;;15.40;55.27;98698.69;103111;1281;108394;-64
2022/09/28 12:17:21;;;;;;;5.80;1.80;;;;;;;15.40;56.47;98702.11;103233;1281;99396;-66
2022/09/28 12:19:59;;;;;;;5.20;1.70;;;;;;;15.38;56.43;98706.01;103058;1280;109675;-66